Time;durP1;ratioP1;P1;durP2;ratioP2;P2;SDS_P1;SDS_P2;PMS_P1;PMS_P2;Temp;Humidity;BMP_temperature;BMP_pressure;BME280_temperature;BME280_humidity;BME280_pressure;Samples;Min_cycle;Max_cycle;Signal;HPM_P1;HPM_P2
2023/04/06 00:00:39;;;;;;;11.13;8.20;;;4.70;99.90;;;;;;4936406;29;20726;-57
2023/04/06 00:03:07;;;;;;;9.17;7.60;;;4.60;99.90;;;;;;4931878;29;20738;-57
2023/04/06 00:05:37;;;;;;;10.30;8.10;;;4.70;99.90;;;;;;4937049;29;20721;-57
2023/04/06 00:08:05;;;;;;;9.07;7.57;;;4.70;99.90;;;;;;4936987;29;20247;-57
2023/04/06 00:10:33;;;;;;;11.60;8.97;;;4.60;99.90;;;;;;4936684;29;20499;-56
2023/04/06 00:13:01;;;;;;;10.83;7.93;;;4.60;99.90;;;;;;4936650;29;20231;-57
2023/04/06 00:15:30;;;;;;;9.23;7.83;;;4.60;99.90;;;;;;4936566;29;20230;-56
2023/04/06 00:17:58;;;;;;;9.70;8.53;;;4.50;99.90;;;;;;4936135;29;20804;-57
2023/04/06 00:20:26;;;;;;;9.67;7.50;;;4.40;99.90;;;;;;4936837;29;20810;-56
2023/04/06 00:22:56;;;;;;;8.83;7.70;;;4.50;99.90;;;;;;4936746;29;20571;-57
2023/04/06 00:25:24;;;;;;;11.03;8.53;;;4.60;99.90;;;;;;4936904;29;20468;-56
2023/04/06 00:27:52;;;;;;;9.60;8.13;;;4.60;99.90;;;;;;4936596;29;20253;-57
2023/04/06 00:30:21;;;;;;;9.13;8.23;;;4.50;99.90;;;;;;4935687;29;20238;-56
2023/04/06 00:32:49;;;;;;;8.63;7.67;;;4.60;99.90;;;;;;4930572;29;20467;-57
2023/04/06 00:35:18;;;;;;;9.47;7.97;;;4.60;99.90;;;;;;4936522;29;20230;-57
2023/04/06 00:37:47;;;;;;;10.00;7.93;;;4.50;99.90;;;;;;4936262;29;20472;-57
2023/04/06 00:40:17;;;;;;;11.13;9.07;;;4.60;99.90;;;;;;4936416;29;20459;-57
2023/04/06 00:42:46;;;;;;;11.33;7.93;;;4.40;99.90;;;;;;4925355;29;21060;-56
2023/04/06 00:45:14;;;;;;;9.07;7.63;;;4.40;99.90;;;;;;4936337;29;20468;-57
2023/04/06 00:47:42;;;;;;;10.07;8.73;;;4.30;99.90;;;;;;4934753;29;20571;-57
2023/04/06 00:50:10;;;;;;;10.30;7.87;;;4.30;99.90;;;;;;4934825;29;20595;-57
2023/04/06 00:52:39;;;;;;;10.80;7.70;;;4.10;99.90;;;;;;4935843;29;20977;-57
2023/04/06 00:55:09;;;;;;;10.30;8.63;;;4.20;99.90;;;;;;4934980;29;21016;-56
2023/04/06 00:57:43;;;;;;;9.73;8.07;;;4.10;99.90;;;;;;4935924;29;20464;-57
2023/04/06 01:00:13;;;;;;;10.50;8.27;;;4.20;99.90;;;;;;4935202;29;20567;-55
2023/04/06 01:02:44;;;;;;;11.20;8.37;;;4.10;99.90;;;;;;4933928;29;20546;-56
2023/04/06 01:05:13;;;;;;;10.67;8.10;;;4.00;99.90;;;;;;4934609;29;20482;-57
2023/04/06 01:07:54;;;;;;;10.37;8.13;;;3.80;99.90;;;;;;4934628;29;20495;-57
2023/04/06 01:10:26;;;;;;;9.67;8.10;;;3.70;99.90;;;;;;4934390;29;20506;-57
2023/04/06 01:13:02;;;;;;;8.10;6.73;;;3.60;99.90;;;;;;4934405;29;20481;-57
2023/04/06 01:15:57;;;;;;;10.50;7.97;;;3.70;99.90;;;;;;4934541;29;20488;-57
2023/04/06 01:18:46;;;;;;;8.13;6.97;;;3.80;99.90;;;;;;4934922;29;20486;-57
2023/04/06 01:21:18;;;;;;;10.23;7.83;;;4.10;99.90;;;;;;4950325;28;20506;-57
2023/04/06 01:24:07;;;;;;;11.77;7.37;;;4.20;99.90;;;;;;4934320;29;20594;-56
2023/04/06 01:26:50;;;;;;;9.07;8.17;;;4.20;99.90;;;;;;4934744;29;20475;-57
2023/04/06 01:29:19;;;;;;;11.27;8.77;;;4.10;99.90;;;;;;4935203;29;20511;-57
2023/04/06 01:31:47;;;;;;;8.50;7.03;;;4.20;99.90;;;;;;4933530;29;21003;-57
2023/04/06 01:34:16;;;;;;;9.53;8.17;;;4.10;99.90;;;;;;4945068;29;20534;-56
2023/04/06 01:36:44;;;;;;;10.40;7.90;;;4.00;99.90;;;;;;4933866;29;20770;-56
2023/04/06 01:39:26;;;;;;;10.60;8.53;;;4.20;99.90;;;;;;4934196;29;20550;-57
2023/04/06 01:41:54;;;;;;;9.67;6.83;;;4.00;99.90;;;;;;4934097;29;20493;-56
2023/04/06 01:44:23;;;;;;;9.30;7.57;;;4.00;99.90;;;;;;4934166;29;20490;-57
2023/04/06 01:47:01;;;;;;;8.13;7.17;;;4.00;99.90;;;;;;4934279;29;20483;-57
2023/04/06 01:49:30;;;;;;;9.30;8.10;;;4.00;99.90;;;;;;4935206;29;20974;-57
2023/04/06 01:51:58;;;;;;;9.17;8.27;;;3.80;99.90;;;;;;4950052;29;20722;-56
2023/04/06 01:54:28;;;;;;;10.17;8.03;;;3.70;99.90;;;;;;4935246;29;20526;-56
2023/04/06 01:57:19;;;;;;;9.73;8.40;;;3.80;99.90;;;;;;4932507;29;21002;-56
2023/04/06 01:59:53;;;;;;;10.20;8.07;;;3.60;99.90;;;;;;4933439;29;20569;-57
2023/04/06 02:02:27;;;;;;;10.10;8.63;;;3.60;99.90;;;;;;4925269;29;20475;-56
2023/04/06 02:05:02;;;;;;;8.13;6.97;;;3.60;99.90;;;;;;4934045;29;20603;-56
2023/04/06 02:07:31;;;;;;;9.83;7.47;;;3.60;99.90;;;;;;4949764;29;20595;-56
2023/04/06 02:10:01;;;;;;;8.97;7.73;;;3.60;99.90;;;;;;4933708;29;21034;-56
2023/04/06 02:12:37;;;;;;;9.87;7.77;;;3.80;99.90;;;;;;4933767;29;20502;-56
2023/04/06 02:15:09;;;;;;;10.67;8.60;;;3.60;99.90;;;;;;4949978;29;20479;-56
2023/04/06 02:17:37;;;;;;;9.10;7.93;;;3.70;99.90;;;;;;4933721;29;20505;-56
2023/04/06 02:20:06;;;;;;;10.00;7.83;;;3.70;99.90;;;;;;4949709;29;20490;-56
2023/04/06 02:22:35;;;;;;;9.23;7.27;;;3.80;99.90;;;;;;4935020;29;20974;-57
2023/04/06 02:25:05;;;;;;;8.47;7.57;;;3.80;99.90;;;;;;4935192;29;20467;-57
2023/04/06 02:27:34;;;;;;;9.53;8.53;;;3.70;99.90;;;;;;4933691;29;20499;-57
2023/04/06 02:30:02;;;;;;;8.23;7.37;;;3.60;99.90;;;;;;4934540;29;20970;-56
2023/04/06 02:32:31;;;;;;;9.07;7.87;;;3.70;99.90;;;;;;4927368;29;21007;-56
2023/04/06 02:34:59;;;;;;;9.50;8.40;;;3.60;99.90;;;;;;4925411;29;20471;-57
2023/04/06 02:37:27;;;;;;;7.67;6.87;;;3.50;99.90;;;;;;4933571;29;20570;-55
2023/04/06 02:39:55;;;;;;;7.87;7.07;;;3.60;99.90;;;;;;4931088;29;20493;-57
2023/04/06 02:42:25;;;;;;;9.80;7.40;;;3.50;99.90;;;;;;4935822;29;20475;-57
2023/04/06 02:44:53;;;;;;;9.53;7.47;;;3.50;99.90;;;;;;4937240;29;20475;-57
2023/04/06 02:47:24;;;;;;;10.00;7.67;;;3.50;99.90;;;;;;4937083;29;20534;-56
2023/04/06 02:49:53;;;;;;;9.73;8.43;;;3.50;99.90;;;;;;4952837;29;20569;-56
2023/04/06 02:52:21;;;;;;;9.90;8.77;;;3.40;99.90;;;;;;4937105;29;20543;-57
2023/04/06 02:54:50;;;;;;;8.73;7.23;;;3.30;99.90;;;;;;4936851;29;20526;-56
2023/04/06 02:57:26;;;;;;;8.47;7.17;;;3.30;99.90;;;;;;4936960;29;20513;-57
2023/04/06 02:59:55;;;;;;;9.77;7.37;;;3.30;99.90;;;;;;4936514;29;20839;-56
2023/04/06 03:02:30;;;;;;;9.57;8.00;;;3.40;99.90;;;;;;4935910;29;20470;-57
2023/04/06 03:05:08;;;;;;;9.20;7.60;;;3.50;99.90;;;;;;4936897;29;20507;-56
2023/04/06 03:07:40;;;;;;;12.63;7.60;;;3.40;99.90;;;;;;4936726;29;21001;-57
2023/04/06 03:10:14;;;;;;;9.90;8.00;;;3.50;99.90;;;;;;4936429;29;20478;-57
2023/04/06 03:12:46;;;;;;;9.57;7.27;;;3.50;99.90;;;;;;4936653;29;20535;-56
2023/04/06 03:15:21;;;;;;;7.57;6.07;;;3.50;99.90;;;;;;4952798;29;20507;-57
2023/04/06 03:17:53;;;;;;;7.80;6.30;;;3.60;99.90;;;;;;4936632;29;20534;-57
2023/04/06 03:20:34;;;;;;;7.70;6.53;;;3.50;99.90;;;;;;4936139;29;20483;-56
2023/04/06 03:23:02;;;;;;;7.03;6.33;;;3.20;99.90;;;;;;4937756;29;20537;-56
2023/04/06 03:25:35;;;;;;;9.80;7.63;;;3.20;99.90;;;;;;4937570;29;20982;-57
2023/04/06 03:28:07;;;;;;;9.37;7.40;;;3.10;99.90;;;;;;4936072;29;20476;-57
2023/04/06 03:30:42;;;;;;;9.50;6.80;;;3.10;99.90;;;;;;4935301;29;21029;-56
2023/04/06 03:33:10;;;;;;;9.70;6.97;;;3.20;99.90;;;;;;4928398;29;20485;-57
2023/04/06 03:35:48;;;;;;;9.70;7.03;;;3.30;99.90;;;;;;4936005;29;20483;-56
2023/04/06 03:38:17;;;;;;;8.77;7.50;;;3.50;99.90;;;;;;4952314;29;20479;-57
2023/04/06 03:40:45;;;;;;;10.23;7.57;;;3.30;99.90;;;;;;4937057;29;20473;-57
2023/04/06 03:43:15;;;;;;;10.53;7.07;;;3.30;99.90;;;;;;4937440;29;20506;-55
2023/04/06 03:45:43;;;;;;;10.73;9.33;;;3.30;99.90;;;;;;4937258;29;20561;-57
2023/04/06 03:48:12;;;;;;;8.53;7.63;;;3.30;99.90;;;;;;4936080;29;20509;-57
2023/04/06 03:50:40;;;;;;;11.83;8.77;;;3.40;99.90;;;;;;4935645;29;20498;-57
2023/04/06 03:53:08;;;;;;;7.57;6.50;;;3.20;99.90;;;;;;4937153;29;20464;-57
2023/04/06 03:55:36;;;;;;;8.50;7.37;;;3.20;99.90;;;;;;4937131;29;20474;-57
2023/04/06 03:58:05;;;;;;;7.90;7.10;;;3.00;99.90;;;;;;4937180;29;21040;-57
2023/04/06 04:00:35;;;;;;;7.67;6.20;;;2.90;99.90;;;;;;4931801;29;20921;-55
2023/04/06 04:03:03;;;;;;;7.83;7.03;;;3.00;99.90;;;;;;4943353;29;20482;-57
2023/04/06 04:05:32;;;;;;;8.60;7.57;;;3.00;99.90;;;;;;4936905;29;20474;-56
2023/04/06 04:08:00;;;;;;;8.10;6.80;;;2.90;99.90;;;;;;4935735;29;20510;-57
2023/04/06 04:10:28;;;;;;;9.50;7.90;;;3.00;99.90;;;;;;4935546;29;20470;-57
2023/04/06 04:12:57;;;;;;;8.53;7.23;;;2.90;99.90;;;;;;4935318;29;20993;-57
2023/04/06 04:15:25;;;;;;;10.03;8.57;;;2.90;99.90;;;;;;4936918;29;20947;-56
2023/04/06 04:17:55;;;;;;;7.60;6.80;;;2.80;99.90;;;;;;4935604;29;20981;-57
2023/04/06 04:20:23;;;;;;;9.40;7.40;;;2.70;99.90;;;;;;4936811;29;20462;-57
2023/04/06 04:22:51;;;;;;;8.37;7.20;;;2.70;99.90;;;;;;4935489;29;20473;-57
2023/04/06 04:25:19;;;;;;;7.80;6.97;;;2.70;99.90;;;;;;4936524;29;20471;-56
2023/04/06 04:27:50;;;;;;;9.33;7.23;;;2.80;99.90;;;;;;4936494;29;20475;-57
2023/04/06 04:30:20;;;;;;;8.77;6.87;;;2.80;99.90;;;;;;4934713;29;20468;-57
2023/04/06 04:32:48;;;;;;;9.17;8.00;;;2.90;99.90;;;;;;4934682;29;20496;-57
2023/04/06 04:35:21;;;;;;;9.80;8.73;;;2.90;99.90;;;;;;4935203;29;20478;-56
2023/04/06 04:37:50;;;;;;;8.87;7.97;;;2.90;99.90;;;;;;4935179;29;20867;-56
2023/04/06 04:40:18;;;;;;;10.90;8.13;;;2.90;99.90;;;;;;4935143;29;20565;-56
2023/04/06 04:43:04;;;;;;;10.23;8.40;;;2.80;99.90;;;;;;4935031;29;20476;-57
2023/04/06 04:45:34;;;;;;;9.17;7.83;;;2.70;99.90;;;;;;4941532;29;20879;-56
2023/04/06 04:48:13;;;;;;;9.10;7.60;;;2.70;99.90;;;;;;4939802;29;21022;-56
2023/04/06 04:50:55;;;;;;;9.03;7.90;;;2.70;99.90;;;;;;4934749;29;21060;-57
2023/04/06 04:53:27;;;;;;;8.53;7.40;;;2.90;99.90;;;;;;4934964;29;20506;-57
2023/04/06 04:56:02;;;;;;;9.27;8.13;;;2.90;99.90;;;;;;4934902;29;20482;-57
2023/04/06 04:58:30;;;;;;;10.83;8.93;;;3.00;99.90;;;;;;4930577;29;20546;-57
2023/04/06 05:01:00;;;;;;;10.80;9.30;;;3.00;99.90;;;;;;4930577;29;21007;-57
2023/04/06 05:03:29;;;;;;;10.47;8.77;;;2.80;99.90;;;;;;4922752;29;20552;-57
2023/04/06 05:06:03;;;;;;;11.93;8.60;;;2.60;99.90;;;;;;4942142;29;20474;-57
2023/04/06 05:08:34;;;;;;;13.00;9.73;;;2.60;99.90;;;;;;4918931;29;20566;-57
2023/04/06 05:11:04;;;;;;;11.70;9.60;;;2.40;99.90;;;;;;4915747;29;20469;-57
2023/04/06 05:13:36;;;;;;;13.00;9.57;;;2.20;99.90;;;;;;4915524;29;20482;-56
2023/04/06 05:16:10;;;;;;;11.73;10.53;;;2.30;99.90;;;;;;4923535;29;20472;-57
2023/04/06 05:18:38;;;;;;;11.93;10.67;;;2.20;99.90;;;;;;4915300;29;20540;-56
2023/04/06 05:21:09;;;;;;;13.27;10.47;;;2.20;99.90;;;;;;4915633;29;20887;-55
2023/04/06 05:23:59;;;;;;;11.07;9.77;;;2.20;99.90;;;;;;4930177;29;20505;-57
2023/04/06 05:26:28;;;;;;;13.93;11.90;;;2.40;99.90;;;;;;4934339;29;20480;-57
2023/04/06 05:29:02;;;;;;;11.97;10.50;;;2.40;99.90;;;;;;4934123;29;20462;-57
2023/04/06 05:31:33;;;;;;;12.53;11.23;;;2.50;99.90;;;;;;4941796;29;20487;-57
2023/04/06 05:34:01;;;;;;;12.20;10.47;;;2.50;99.90;;;;;;4935634;29;20462;-57
2023/04/06 05:36:35;;;;;;;12.73;10.90;;;2.60;99.90;;;;;;4933794;29;20487;-56
2023/04/06 05:39:09;;;;;;;11.20;10.00;;;3.00;99.90;;;;;;4934314;29;20478;-56
2023/04/06 05:41:57;;;;;;;11.50;10.40;;;3.00;99.90;;;;;;4934973;29;20525;-56
2023/04/06 05:44:38;;;;;;;11.47;10.37;;;3.00;99.90;;;;;;4927853;29;20526;-57
2023/04/06 05:47:11;;;;;;;12.50;10.73;;;3.00;99.90;;;;;;4927969;29;20484;-58
2023/04/06 05:49:42;;;;;;;11.73;10.50;;;3.00;99.90;;;;;;4947111;29;20468;-58
2023/04/06 05:52:17;;;;;;;11.90;10.67;;;3.10;99.90;;;;;;4946946;29;20484;-58
2023/04/06 05:54:47;;;;;;;11.20;10.07;;;3.20;99.90;;;;;;4947128;29;20478;-59
2023/04/06 05:57:17;;;;;;;10.83;9.37;;;3.40;99.90;;;;;;4947612;29;20507;-58
2023/04/06 05:59:46;;;;;;;10.53;9.47;;;3.50;99.90;;;;;;4937387;29;20468;-58
2023/04/06 06:02:15;;;;;;;10.13;9.13;;;3.70;99.90;;;;;;4942197;29;20467;-59
2023/04/06 06:04:47;;;;;;;10.30;9.17;;;3.90;99.90;;;;;;4938422;29;20884;-59
2023/04/06 06:07:18;;;;;;;10.30;9.27;;;4.00;99.90;;;;;;4936441;29;20479;-59
2023/04/06 06:09:57;;;;;;;9.50;8.60;;;4.10;99.90;;;;;;4935656;29;20470;-59
2023/04/06 06:12:31;;;;;;;9.83;8.83;;;4.30;99.90;;;;;;4934969;29;20541;-59
2023/04/06 06:15:00;;;;;;;9.57;8.57;;;4.50;99.90;;;;;;4935238;29;20480;-59
2023/04/06 06:17:29;;;;;;;10.80;7.93;;;4.70;99.90;;;;;;4937399;29;20478;-59
2023/04/06 06:19:57;;;;;;;10.73;7.73;;;4.90;99.90;;;;;;4938520;29;20471;-59
2023/04/06 06:22:29;;;;;;;11.57;9.17;;;5.10;99.90;;;;;;4937796;29;20980;-59
2023/04/06 06:24:57;;;;;;;12.97;9.03;;;5.40;99.90;;;;;;4937810;29;20478;-59
2023/04/06 06:27:26;;;;;;;9.80;8.00;;;5.50;99.90;;;;;;4932039;29;20570;-59
2023/04/06 06:29:54;;;;;;;9.03;7.60;;;5.70;99.90;;;;;;4934320;29;20959;-57
2023/04/06 06:32:24;;;;;;;9.30;7.87;;;5.90;99.90;;;;;;4923997;29;20228;-57
2023/04/06 06:34:53;;;;;;;9.97;8.00;;;6.00;99.90;;;;;;4937582;29;20703;-59
2023/04/06 06:37:22;;;;;;;8.67;7.77;;;6.10;99.90;;;;;;4937394;29;20559;-59
2023/04/06 06:39:51;;;;;;;10.13;7.20;;;6.30;99.90;;;;;;4937182;29;20256;-59
2023/04/06 06:42:21;;;;;;;9.37;7.90;;;6.50;99.90;;;;;;4937210;29;20467;-59
2023/04/06 06:45:02;;;;;;;9.40;6.70;;;6.70;99.90;;;;;;4937222;29;20739;-59
2023/04/06 06:47:31;;;;;;;6.63;5.93;;;6.90;99.90;;;;;;4938338;29;20228;-59
2023/04/06 06:49:59;;;;;;;7.20;6.50;;;7.00;99.90;;;;;;4932126;29;20615;-59
2023/04/06 06:52:28;;;;;;;7.67;6.07;;;7.00;99.90;;;;;;4936017;29;20224;-59
2023/04/06 06:54:58;;;;;;;7.87;6.13;;;7.20;99.90;;;;;;4938310;29;20230;-60
2023/04/06 06:57:27;;;;;;;6.43;5.73;;;7.30;99.90;;;;;;4938065;29;20468;-59
2023/04/06 06:59:55;;;;;;;7.83;5.77;;;7.40;99.90;;;;;;4928768;29;20706;-60
2023/04/06 07:02:24;;;;;;;8.70;6.00;;;7.50;99.90;;;;;;4938962;29;20247;-60
2023/04/06 07:04:52;;;;;;;6.60;5.90;;;7.80;99.90;;;;;;4919112;29;20241;-59
2023/04/06 07:07:20;;;;;;;6.50;5.70;;;8.00;99.90;;;;;;4917874;29;20233;-60
2023/04/06 07:09:48;;;;;;;8.93;5.90;;;8.40;99.90;;;;;;4928675;29;20692;-60
2023/04/06 07:12:18;;;;;;;9.53;6.27;;;8.60;99.90;;;;;;4937759;29;20224;-60
2023/04/06 07:14:46;;;;;;;8.10;6.10;;;8.70;99.90;;;;;;4938045;29;20658;-60
2023/04/06 07:17:14;;;;;;;7.80;6.60;;;8.90;99.90;;;;;;4937874;29;20224;-60
2023/04/06 07:19:43;;;;;;;8.17;5.83;;;9.00;99.90;;;;;;4936061;29;20259;-60
2023/04/06 07:22:11;;;;;;;8.20;5.80;;;9.10;99.90;;;;;;4936254;29;20284;-60
2023/04/06 07:24:39;;;;;;;7.63;6.20;;;9.40;99.90;;;;;;4937624;29;20283;-60
2023/04/06 07:27:08;;;;;;;6.70;5.60;;;9.30;99.90;;;;;;4935891;29;20228;-60
2023/04/06 07:29:37;;;;;;;7.77;5.40;;;9.30;99.90;;;;;;4927971;29;20561;-60
2023/04/06 07:32:06;;;;;;;7.53;5.63;;;9.20;99.90;;;;;;4920167;29;20236;-60
2023/04/06 07:34:35;;;;;;;6.93;5.50;;;9.10;99.90;;;;;;4935857;29;20688;-60
2023/04/06 07:37:03;;;;;;;6.63;5.77;;;9.10;99.90;;;;;;4937564;29;20221;-60
2023/04/06 07:39:32;;;;;;;6.70;5.40;;;9.30;99.90;;;;;;4935797;29;20320;-60
2023/04/06 07:42:01;;;;;;;7.50;5.27;;;9.40;99.90;;;;;;4936103;29;20231;-60
2023/04/06 07:44:29;;;;;;;5.80;5.10;;;9.70;99.90;;;;;;4935928;29;20236;-60
2023/04/06 07:46:59;;;;;;;8.17;5.70;;;9.90;99.90;;;;;;4937336;29;20305;-60
2023/04/06 07:49:27;;;;;;;6.93;5.40;;;10.20;99.90;;;;;;4937180;29;20239;-60
2023/04/06 07:51:57;;;;;;;7.73;5.57;;;10.30;99.90;;;;;;4936000;29;20316;-61
2023/04/06 07:54:25;;;;;;;6.20;4.73;;;10.50;99.90;;;;;;4935548;29;20242;-60
2023/04/06 07:56:53;;;;;;;8.20;5.37;;;10.40;99.90;;;;;;4937339;29;20242;-60
2023/04/06 07:59:21;;;;;;;9.53;5.53;;;10.60;99.90;;;;;;4935442;29;20247;-60
2023/04/06 08:01:49;;;;;;;6.87;5.53;;;10.70;99.90;;;;;;4934655;29;20653;-60
2023/04/06 08:04:18;;;;;;;6.30;5.10;;;10.80;99.90;;;;;;4918099;29;20714;-60
2023/04/06 08:06:47;;;;;;;8.93;5.70;;;10.90;99.90;;;;;;4917820;29;20292;-60
2023/04/06 08:09:15;;;;;;;6.37;5.43;;;11.20;99.90;;;;;;4932562;29;20874;-61
2023/04/06 08:11:44;;;;;;;6.50;5.00;;;11.30;99.90;;;;;;4931456;29;20682;-61
2023/04/06 08:14:12;;;;;;;8.23;5.73;;;11.30;99.90;;;;;;4916299;29;20607;-61
2023/04/06 08:16:40;;;;;;;7.20;5.43;;;11.30;99.90;;;;;;4930219;29;20680;-61
2023/04/06 08:19:09;;;;;;;6.67;5.60;;;11.20;99.90;;;;;;4936978;29;20616;-61
2023/04/06 08:21:40;;;;;;;6.40;5.00;;;11.30;99.90;;;;;;4936593;29;20244;-61
2023/04/06 08:24:08;;;;;;;8.07;5.80;;;11.70;99.90;;;;;;4936489;29;20235;-61
2023/04/06 08:26:37;;;;;;;7.10;5.27;;;11.80;99.90;;;;;;4936720;29;20241;-61
2023/04/06 08:29:07;;;;;;;8.00;6.10;;;11.80;99.90;;;;;;4933032;29;20373;-61
2023/04/06 08:31:35;;;;;;;8.57;5.33;;;12.00;99.90;;;;;;4920536;29;20266;-61
2023/04/06 08:34:05;;;;;;;9.20;5.67;;;11.80;99.90;;;;;;4922826;29;20234;-61
2023/04/06 08:36:34;;;;;;;9.03;5.47;;;11.80;99.90;;;;;;4935768;29;20290;-56
2023/04/06 08:39:04;;;;;;;7.37;5.37;;;11.80;99.90;;;;;;4931643;29;20674;-56
2023/04/06 08:41:32;;;;;;;8.80;6.20;;;11.80;99.90;;;;;;4928480;29;20297;-56
2023/04/06 08:44:02;;;;;;;9.77;5.70;;;11.90;99.90;;;;;;4917931;29;20726;-56
2023/04/06 08:46:31;;;;;;;7.70;5.63;;;12.10;99.90;;;;;;4917476;29;20282;-56
2023/04/06 08:49:01;;;;;;;7.57;5.90;;;12.00;99.90;;;;;;4917331;29;20235;-56
2023/04/06 08:51:30;;;;;;;7.30;5.87;;;12.10;99.90;;;;;;4917101;29;20259;-56
2023/04/06 08:54:00;;;;;;;8.07;5.53;;;12.20;99.90;;;;;;4917144;29;20235;-56
2023/04/06 08:56:29;;;;;;;6.93;5.77;;;12.40;99.90;;;;;;4917160;29;20568;-55
2023/04/06 08:58:58;;;;;;;7.03;5.70;;;12.60;99.90;;;;;;4922820;29;20236;-56
2023/04/06 09:01:28;;;;;;;9.03;6.20;;;12.60;99.90;;;;;;4921105;29;20584;-56
2023/04/06 09:03:58;;;;;;;7.90;5.40;;;12.70;99.90;;;;;;4934887;29;20774;-56
2023/04/06 09:06:27;;;;;;;6.20;5.60;;;12.90;99.90;;;;;;4935855;29;20707;-57
2023/04/06 09:08:56;;;;;;;7.13;5.27;;;13.00;99.90;;;;;;4935876;29;20236;-56
2023/04/06 09:11:24;;;;;;;6.90;5.27;;;12.90;99.90;;;;;;4935798;29;20239;-56
2023/04/06 09:13:57;;;;;;;6.87;5.60;;;13.00;99.90;;;;;;4935153;29;20265;-56
2023/04/06 09:16:25;;;;;;;9.37;5.20;;;13.00;99.90;;;;;;4935995;29;20253;-55
2023/04/06 09:18:54;;;;;;;8.47;5.40;;;12.70;99.90;;;;;;4936039;29;20232;-56
2023/04/06 09:21:22;;;;;;;7.40;5.50;;;12.90;99.90;;;;;;4935597;29;20223;-54
2023/04/06 09:24:00;;;;;;;8.10;5.50;;;13.00;99.90;;;;;;4935975;29;20729;-55
2023/04/06 09:26:28;;;;;;;9.00;5.23;;;13.20;99.70;;;;;;4935465;29;20640;-54
2023/04/06 09:29:00;;;;;;;8.30;5.43;;;13.10;99.20;;;;;;4933035;29;20230;-55
2023/04/06 09:31:32;;;;;;;6.97;5.37;;;13.10;99.00;;;;;;4920240;29;20771;-56
2023/04/06 09:34:01;;;;;;;8.87;6.10;;;13.40;99.50;;;;;;4935246;29;20238;-56
2023/04/06 09:36:34;;;;;;;7.90;6.00;;;13.70;99.20;;;;;;4935566;29;20232;-56
2023/04/06 09:39:03;;;;;;;6.80;5.73;;;13.50;98.50;;;;;;4935839;29;20235;-56
2023/04/06 09:41:33;;;;;;;7.60;5.73;;;13.00;97.80;;;;;;4935307;29;20241;-57
2023/04/06 09:44:07;;;;;;;6.83;5.93;;;13.10;98.90;;;;;;4935518;29;20224;-56
2023/04/06 09:46:37;;;;;;;7.73;6.03;;;13.50;98.70;;;;;;4935209;29;20235;-55
2023/04/06 09:49:28;;;;;;;8.37;6.40;;;13.70;97.40;;;;;;4935611;29;20234;-56
2023/04/06 09:52:00;;;;;;;8.17;6.10;;;13.60;97.30;;;;;;4938922;29;20591;-56
2023/04/06 09:54:31;;;;;;;8.40;5.67;;;13.60;97.20;;;;;;4939160;29;20224;-54
2023/04/06 09:57:08;;;;;;;8.40;5.87;;;13.70;97.00;;;;;;4939327;29;20684;-56
2023/04/06 09:59:51;;;;;;;6.97;5.67;;;13.70;96.80;;;;;;4935746;29;20238;-57
2023/04/06 10:02:30;;;;;;;6.20;5.13;;;14.00;96.70;;;;;;4930700;29;20646;-56
2023/04/06 10:05:06;;;;;;;6.23;5.00;;;14.40;97.00;;;;;;4939511;29;20323;-55
2023/04/06 10:07:35;;;;;;;7.73;5.07;;;14.50;95.40;;;;;;4938885;29;20234;-56
2023/04/06 10:10:17;;;;;;;5.80;4.77;;;14.50;96.00;;;;;;4939383;29;20717;-55
2023/04/06 10:12:46;;;;;;;6.23;4.70;;;14.50;95.20;;;;;;4938860;29;20228;-55
2023/04/06 10:15:15;;;;;;;6.83;5.13;;;14.50;94.20;;;;;;4939018;29;20716;-54
2023/04/06 10:17:44;;;;;;;6.00;4.60;;;14.90;95.40;;;;;;4939000;29;20246;-55
2023/04/06 10:20:20;;;;;;;7.03;4.70;;;14.90;94.00;;;;;;4939170;29;20239;-55
2023/04/06 10:22:56;;;;;;;4.93;4.43;;;15.00;94.50;;;;;;4938990;29;20239;-55
2023/04/06 10:25:29;;;;;;;6.67;4.60;;;15.10;93.80;;;;;;4939052;29;20238;-54
2023/04/06 10:28:01;;;;;;;6.40;4.60;;;15.40;95.00;;;;;;4938741;29;20231;-56
2023/04/06 10:30:32;;;;;;;5.47;4.90;;;15.70;93.70;;;;;;4927727;29;20235;-55
2023/04/06 10:33:00;;;;;;;6.53;4.93;;;15.20;92.30;;;;;;4930358;29;20231;-54
2023/04/06 10:35:38;;;;;;;8.03;5.27;;;15.50;93.00;;;;;;4938382;29;20245;-55
2023/04/06 10:38:07;;;;;;;5.87;4.83;;;15.70;93.00;;;;;;4935901;29;20228;-55
2023/04/06 10:40:37;;;;;;;7.93;6.07;;;15.80;92.00;;;;;;4919706;29;20583;-55
2023/04/06 10:43:09;;;;;;;8.47;5.60;;;15.90;92.10;;;;;;4934026;29;20239;-55
2023/04/06 10:45:40;;;;;;;8.27;5.80;;;15.90;91.00;;;;;;4938155;29;20228;-55
2023/04/06 10:48:17;;;;;;;6.87;5.67;;;16.00;91.50;;;;;;4938425;29;20236;-56
2023/04/06 10:50:48;;;;;;;8.27;5.80;;;16.20;91.50;;;;;;4938458;29;20331;-54
2023/04/06 10:53:23;;;;;;;9.03;6.10;;;15.90;90.90;;;;;;4938327;29;20232;-55
2023/04/06 10:55:52;;;;;;;7.87;6.03;;;16.10;91.10;;;;;;4938437;29;20254;-55
2023/04/06 10:58:20;;;;;;;7.67;6.20;;;16.10;90.70;;;;;;4938236;29;20323;-55
2023/04/06 11:00:50;;;;;;;7.40;6.70;;;15.90;89.80;;;;;;4924664;29;20247;-54
2023/04/06 11:03:19;;;;;;;6.77;5.83;;;15.80;90.20;;;;;;4931353;29;20250;-54
2023/04/06 11:05:48;;;;;;;6.73;5.93;;;16.20;90.70;;;;;;4937947;29;20319;-56
2023/04/06 11:08:31;;;;;;;11.60;6.80;;;16.40;90.30;;;;;;4938269;29;20263;-56
2023/04/06 11:11:06;;;;;;;8.33;7.10;;;16.70;90.60;;;;;;4937475;29;20287;-56
2023/04/06 11:13:42;;;;;;;10.13;8.57;;;16.80;90.70;;;;;;4937911;29;20591;-55
2023/04/06 11:16:16;;;;;;;10.83;7.53;;;16.40;86.90;;;;;;4938066;29;20235;-55
2023/04/06 11:18:52;;;;;;;10.00;7.43;;;16.60;89.80;;;;;;4937710;29;20243;-55
2023/04/06 11:21:21;;;;;;;9.33;7.70;;;16.60;85.30;;;;;;4938111;29;20646;-53
2023/04/06 11:23:49;;;;;;;9.30;7.53;;;16.60;87.70;;;;;;4937974;29;20232;-54
2023/04/06 11:26:18;;;;;;;11.03;7.80;;;16.80;87.50;;;;;;4938012;29;20231;-54
2023/04/06 11:28:46;;;;;;;9.63;8.40;;;16.70;88.00;;;;;;4938062;29;20695;-55
2023/04/06 11:31:16;;;;;;;10.37;8.57;;;16.90;87.90;;;;;;4924479;29;20297;-54
2023/04/06 11:33:44;;;;;;;9.37;8.07;;;16.80;87.30;;;;;;4934840;29;20239;-55
2023/04/06 11:36:14;;;;;;;9.57;8.57;;;16.80;85.80;;;;;;4937479;29;20246;-56
2023/04/06 11:38:44;;;;;;;9.33;8.43;;;16.80;83.80;;;;;;4937597;29;20236;-56
2023/04/06 11:41:12;;;;;;;9.93;8.90;;;16.50;85.10;;;;;;4937868;29;20306;-55
2023/04/06 11:43:48;;;;;;;11.00;9.07;;;16.40;85.40;;;;;;4937265;29;20715;-56
2023/04/06 11:46:20;;;;;;;10.77;8.90;;;16.40;85.50;;;;;;4937649;29;20706;-55
2023/04/06 11:48:48;;;;;;;10.57;8.50;;;16.40;83.80;;;;;;4937416;29;20236;-54
2023/04/06 11:51:23;;;;;;;10.67;8.57;;;16.40;83.90;;;;;;4937589;29;20726;-56
2023/04/06 11:53:52;;;;;;;12.07;9.67;;;16.30;85.80;;;;;;4937556;29;20561;-55
2023/04/06 11:56:27;;;;;;;10.13;8.53;;;16.20;84.60;;;;;;4937413;29;20250;-54
2023/04/06 11:58:57;;;;;;;11.00;8.80;;;15.90;86.60;;;;;;4934942;29;20258;-54
2023/04/06 12:01:27;;;;;;;11.53;8.97;;;15.90;84.80;;;;;;4921727;29;20272;-55
2023/04/06 12:03:55;;;;;;;10.93;9.30;;;16.10;87.30;;;;;;4935820;29;20284;-55
2023/04/06 12:06:25;;;;;;;11.13;9.40;;;15.90;88.10;;;;;;4937037;29;20236;-55
2023/04/06 12:08:53;;;;;;;10.47;9.37;;;15.70;87.40;;;;;;4936884;29;20228;-54
2023/04/06 12:11:21;;;;;;;11.80;9.77;;;15.70;84.20;;;;;;4937307;29;20232;-54
2023/04/06 12:13:50;;;;;;;10.30;8.80;;;15.50;87.00;;;;;;4936481;29;20299;-53
2023/04/06 12:16:19;;;;;;;12.10;9.27;;;15.60;87.80;;;;;;4936941;29;20244;-55
2023/04/06 12:18:48;;;;;;;11.30;9.53;;;15.20;89.50;;;;;;4936907;29;20739;-56
2023/04/06 12:21:16;;;;;;;10.17;8.93;;;15.50;88.90;;;;;;4936973;29;20239;-56
2023/04/06 12:23:45;;;;;;;10.07;8.93;;;15.50;89.60;;;;;;4936518;29;20279;-55
2023/04/06 12:26:13;;;;;;;11.87;9.33;;;15.60;88.20;;;;;;4936681;29;20232;-55
2023/04/06 12:28:41;;;;;;;11.07;9.20;;;15.60;88.70;;;;;;4936176;29;20331;-53
2023/04/06 12:31:16;;;;;;;11.40;8.73;;;15.60;88.10;;;;;;4921445;29;20244;-54
2023/04/06 12:33:45;;;;;;;10.63;8.97;;;15.50;86.50;;;;;;4931147;29;21271;-55
2023/04/06 12:36:15;;;;;;;9.93;8.53;;;15.50;88.40;;;;;;4936703;29;20246;-55
2023/04/06 12:38:45;;;;;;;12.23;9.80;;;15.40;87.40;;;;;;4936562;29;20228;-55
2023/04/06 12:41:14;;;;;;;12.83;9.63;;;15.50;88.90;;;;;;4936112;29;20224;-55
2023/04/06 12:43:43;;;;;;;10.63;8.77;;;15.70;88.50;;;;;;4936139;29;20250;-54
2023/04/06 12:46:12;;;;;;;12.50;9.40;;;15.60;89.50;;;;;;4936413;29;20299;-53
2023/04/06 12:48:40;;;;;;;11.57;9.07;;;15.80;89.20;;;;;;4936278;29;20235;-56
2023/04/06 12:51:09;;;;;;;12.23;9.30;;;15.70;88.10;;;;;;4936249;29;20271;-56
2023/04/06 12:53:38;;;;;;;12.03;9.53;;;15.50;88.10;;;;;;4936280;29;20696;-55
2023/04/06 12:56:13;;;;;;;10.77;9.43;;;15.20;86.80;;;;;;4936111;29;20244;-55
2023/04/06 12:58:42;;;;;;;9.70;8.57;;;15.10;88.50;;;;;;4935267;29;20588;-56
2023/04/06 13:01:11;;;;;;;11.40;9.00;;;15.20;87.40;;;;;;4920829;29;20239;-54
2023/04/06 13:03:39;;;;;;;10.90;9.23;;;15.40;88.00;;;;;;4932528;29;20338;-54
2023/04/06 13:06:09;;;;;;;11.17;9.03;;;15.30;87.20;;;;;;4935408;29;20232;-53